createdAt,value
2022-11-01T00:02:20.044Z,18.43
2022-11-01T00:04:49.601Z,18.44
2022-11-01T00:07:17.695Z,18.39
2022-11-01T00:09:45.697Z,18.40
2022-11-01T00:12:13.844Z,18.38
2022-11-01T00:14:41.713Z,18.37
2022-11-01T00:17:10.398Z,18.33
2022-11-01T00:19:38.432Z,18.27
2022-11-01T00:22:06.562Z,18.20
2022-11-01T00:24:34.597Z,18.20
2022-11-01T00:27:02.517Z,18.14
2022-11-01T00:29:30.639Z,18.13
2022-11-01T00:31:59.764Z,18.19
2022-11-01T00:34:27.805Z,18.13
2022-11-01T00:36:55.993Z,18.15
2022-11-01T00:39:28.813Z,18.20
2022-11-01T00:42:00.143Z,18.20
2022-11-01T00:44:34.136Z,18.19
2022-11-01T00:47:03.381Z,18.32
2022-11-01T00:49:32.364Z,18.27
2022-11-01T00:52:00.545Z,18.29
2022-11-01T00:54:30.834Z,18.25
2022-11-01T00:56:58.833Z,18.21
2022-11-01T00:59:26.811Z,18.25
2022-11-01T01:01:55.077Z,18.25
2022-11-01T01:04:23.241Z,18.17
2022-11-01T01:06:51.211Z,18.17
2022-11-01T01:09:19.696Z,18.17
2022-11-01T01:11:47.791Z,18.18
2022-11-01T01:14:15.960Z,18.07
2022-11-01T01:16:43.991Z,18.20
2022-11-01T01:19:12.074Z,18.21
2022-11-01T01:21:40.464Z,18.16
2022-11-01T01:24:08.611Z,18.22
2022-11-01T01:26:36.948Z,18.19
2022-11-01T01:29:05.031Z,18.13
2022-11-01T01:31:33.445Z,18.19
2022-11-01T01:34:02.937Z,18.22
2022-11-01T01:36:31.205Z,18.23
2022-11-01T01:38:59.203Z,18.15
2022-11-01T01:41:45.984Z,18.23
2022-11-01T01:44:51.078Z,18.28
2022-11-01T01:47:29.383Z,18.33
2022-11-01T01:50:18.144Z,18.35
2022-11-01T01:53:00.299Z,18.31
2022-11-01T01:55:42.224Z,18.45
2022-11-01T01:58:12.027Z,18.25
2022-11-01T02:00:42.248Z,18.35
2022-11-01T02:03:11.659Z,18.33
2022-11-01T02:06:02.684Z,18.45
2022-11-01T02:08:31.556Z,18.42
2022-11-01T02:11:03.704Z,18.51
2022-11-01T02:13:32.506Z,18.49
2022-11-01T02:16:22.675Z,18.64
2022-11-01T02:19:46.551Z,18.56
2022-11-01T02:25:34.308Z,18.60
2022-11-01T02:28:52.309Z,18.56
2022-11-01T02:31:54.277Z,18.57
2022-11-01T02:34:44.131Z,18.53
2022-11-01T02:37:27.783Z,18.54
2022-11-01T02:40:12.373Z,18.54
2022-11-01T02:42:52.049Z,18.53
2022-11-01T02:45:30.649Z,18.57
2022-11-01T02:48:03.467Z,18.54
2022-11-01T02:50:46.431Z,18.63
2022-11-01T02:53:15.736Z,18.58
2022-11-01T02:58:28.760Z,18.64
2022-11-01T03:00:57.241Z,18.67
2022-11-01T03:03:36.259Z,18.62
2022-11-01T03:06:04.059Z,18.70
2022-11-01T03:09:02.558Z,18.68
2022-11-01T03:12:03.715Z,18.61
2022-11-01T03:15:19.509Z,18.56
2022-11-01T03:18:01.914Z,18.53
2022-11-01T03:21:15.863Z,18.46
2022-11-01T03:23:55.130Z,18.57
2022-11-01T03:26:32.127Z,18.66
2022-11-01T03:29:06.713Z,18.67
2022-11-01T03:31:39.367Z,18.65
2022-11-01T03:34:15.076Z,18.69
2022-11-01T03:36:54.045Z,18.60
2022-11-01T03:39:36.768Z,18.62
2022-11-01T03:42:11.881Z,18.54
2022-11-01T03:44:52.585Z,18.55
2022-11-01T03:47:22.162Z,18.61
2022-11-01T03:50:13.045Z,18.56
2022-11-01T03:52:41.225Z,18.50
2022-11-01T03:55:19.273Z,18.55
2022-11-01T03:57:55.164Z,18.62
2022-11-01T04:00:27.837Z,18.61
2022-11-01T04:02:58.510Z,18.55
2022-11-01T04:05:29.740Z,18.59
2022-11-01T04:07:57.766Z,18.58
2022-11-01T04:10:29.381Z,18.64
2022-11-01T04:12:57.920Z,18.42
2022-11-01T04:15:46.363Z,18.54
2022-11-01T04:18:42.810Z,18.56
2022-11-01T04:21:17.978Z,18.60
2022-11-01T04:23:46.308Z,18.64
2022-11-01T04:26:17.781Z,18.68
2022-11-01T04:28:57.128Z,18.72
2022-11-01T04:31:37.957Z,18.76
2022-11-01T04:34:05.917Z,18.72
2022-11-01T04:36:34.216Z,18.73
2022-11-01T04:39:02.072Z,18.70
2022-11-01T04:41:30.775Z,18.72
2022-11-01T04:44:00.438Z,18.78
2022-11-01T04:46:34.404Z,18.81
2022-11-01T04:49:02.219Z,18.80
2022-11-01T04:51:30.288Z,18.72
2022-11-01T04:53:58.097Z,18.79
2022-11-01T04:56:25.889Z,18.83
2022-11-01T04:58:53.675Z,18.75
2022-11-01T05:01:21.539Z,18.84
2022-11-01T05:03:50.731Z,18.89
2022-11-01T05:06:19.039Z,18.91
2022-11-01T05:08:46.781Z,18.91
2022-11-01T05:11:14.827Z,18.88
2022-11-01T05:13:42.592Z,18.87
2022-11-01T05:16:25.736Z,18.88
2022-11-01T05:18:53.559Z,18.89
2022-11-01T05:21:21.429Z,18.84
2022-11-01T05:23:49.444Z,18.89
2022-11-01T05:26:17.930Z,18.82
2022-11-01T05:28:46.087Z,18.95
2022-11-01T05:31:14.178Z,18.92
2022-11-01T05:33:42.117Z,18.95
2022-11-01T05:36:10.023Z,19.00
2022-11-01T05:38:37.997Z,18.95
2022-11-01T05:41:06.201Z,18.95
2022-11-01T05:43:34.353Z,18.91
2022-11-01T05:46:08.863Z,18.92
2022-11-01T05:48:36.794Z,18.87
2022-11-01T05:51:04.847Z,18.95
2022-11-01T05:53:33.244Z,18.96
2022-11-01T05:56:00.976Z,18.84
2022-11-01T05:58:30.768Z,18.85
2022-11-01T06:01:06.312Z,18.98
2022-11-01T06:03:36.919Z,18.97
2022-11-01T06:06:05.531Z,18.97
2022-11-01T06:08:34.085Z,19.01
2022-11-01T06:11:04.899Z,18.97
2022-11-01T06:13:33.829Z,18.92
2022-11-01T06:16:06.128Z,19.04
2022-11-01T06:18:34.149Z,19.08
2022-11-01T06:21:02.271Z,19.10
2022-11-01T06:23:30.325Z,19.11
2022-11-01T06:26:03.252Z,19.18
2022-11-01T06:28:32.159Z,19.19
2022-11-01T06:33:37.824Z,19.18
2022-11-01T06:36:06.579Z,19.21
2022-11-01T06:38:34.923Z,19.11
2022-11-01T06:41:03.162Z,19.21
2022-11-01T06:43:31.040Z,19.29
2022-11-01T06:46:02.467Z,19.21
2022-11-01T06:48:31.186Z,19.25
2022-11-01T06:50:58.957Z,19.27
2022-11-01T06:53:27.008Z,19.31
2022-11-01T06:55:55.194Z,19.32
2022-11-01T06:58:23.443Z,19.36
2022-11-01T07:00:51.780Z,19.37
2022-11-01T07:03:19.795Z,19.32
2022-11-01T07:05:50.264Z,19.31
2022-11-01T07:08:18.193Z,19.31
2022-11-01T07:10:46.025Z,19.33
2022-11-01T07:13:14.462Z,19.37
2022-11-01T07:15:42.539Z,19.44
2022-11-01T07:18:10.625Z,19.48
2022-11-01T07:20:42.482Z,19.46
2022-11-01T07:23:17.334Z,19.49
2022-11-01T07:25:50.388Z,19.40
2022-11-01T07:28:19.176Z,19.54
2022-11-01T07:30:55.365Z,19.54
2022-11-01T07:33:23.315Z,19.57
2022-11-01T07:35:52.399Z,19.51
2022-11-01T07:38:20.766Z,19.65
2022-11-01T07:40:49.606Z,19.64
2022-11-01T07:43:18.053Z,19.67
2022-11-01T07:45:46.939Z,19.66
2022-11-01T07:48:18.210Z,19.62
2022-11-01T07:50:47.101Z,19.66
2022-11-01T07:53:18.369Z,19.78
2022-11-01T07:55:47.517Z,19.73
2022-11-01T07:58:16.557Z,19.83
2022-11-01T08:00:46.057Z,19.82
2022-11-01T08:03:16.953Z,19.92
2022-11-01T08:05:46.963Z,19.95
2022-11-01T08:08:21.955Z,19.98
2022-11-01T08:10:52.386Z,19.97
2022-11-01T08:13:23.914Z,20.12
2022-11-01T08:15:55.069Z,20.07
2022-11-01T08:18:24.617Z,20.08
2022-11-01T08:20:52.799Z,20.13
2022-11-01T08:23:26.016Z,20.30
2022-11-01T08:25:54.154Z,20.24
2022-11-01T08:28:30.887Z,20.29
2022-11-01T08:31:10.912Z,20.32
2022-11-01T08:33:38.922Z,20.27
2022-11-01T08:36:07.244Z,20.41
2022-11-01T08:38:35.250Z,20.45
2022-11-01T08:41:03.588Z,20.50
2022-11-01T08:43:33.585Z,20.51
2022-11-01T08:46:07.816Z,20.52
2022-11-01T08:48:35.803Z,20.55
2022-11-01T08:51:06.722Z,20.59
2022-11-01T08:53:39.741Z,20.66
2022-11-01T08:56:07.964Z,20.66
2022-11-01T08:58:35.962Z,20.69
2022-11-01T09:01:07.779Z,20.72
2022-11-01T09:03:36.114Z,20.64
2022-11-01T09:06:04.415Z,20.72
2022-11-01T09:08:56.187Z,20.63
2022-11-01T09:11:44.068Z,20.63
2022-11-01T09:14:14.434Z,20.72
2022-11-01T09:16:42.333Z,20.75
2022-11-01T09:19:10.584Z,20.72
2022-11-01T09:21:38.420Z,20.78
2022-11-01T09:24:15.399Z,20.78
2022-11-01T09:26:44.335Z,20.77
2022-11-01T09:29:21.213Z,20.87
2022-11-01T09:31:54.496Z,20.93
2022-11-01T09:34:23.379Z,20.91
2022-11-01T09:36:52.604Z,21.00
2022-11-01T09:39:22.323Z,21.04
2022-11-01T09:42:04.067Z,21.02
2022-11-01T09:44:40.715Z,21.00
2022-11-01T09:47:23.890Z,20.93
2022-11-01T09:50:33.939Z,20.80
2022-11-01T09:53:16.355Z,20.74
2022-11-01T09:56:23.413Z,20.58
2022-11-01T09:59:01.775Z,20.50
2022-11-01T10:02:09.566Z,20.54
2022-11-01T10:05:19.666Z,20.54
2022-11-01T10:08:31.556Z,20.51
2022-11-01T10:11:30.064Z,20.49
2022-11-01T10:14:28.263Z,20.48
2022-11-01T10:17:30.621Z,20.52
2022-11-01T10:20:00.048Z,20.51
2022-11-01T10:22:38.619Z,20.66
2022-11-01T10:25:28.868Z,20.76
2022-11-01T10:28:19.228Z,20.72
2022-11-01T10:31:06.662Z,20.86
2022-11-01T10:33:41.686Z,20.90
2022-11-01T10:36:32.462Z,20.93
2022-11-01T10:39:58.035Z,20.86
2022-11-01T10:42:32.875Z,20.92
2022-11-01T10:45:07.745Z,20.97
2022-11-01T10:47:35.932Z,20.93
2022-11-01T10:50:12.672Z,20.92
2022-11-01T10:53:11.451Z,20.80
2022-11-01T10:56:08.125Z,20.83
2022-11-01T10:59:40.638Z,20.81
2022-11-01T11:02:23.593Z,20.87
2022-11-01T11:04:52.567Z,20.81
2022-11-01T11:07:24.319Z,20.83
2022-11-01T11:09:52.803Z,20.85
2022-11-01T11:12:24.054Z,20.90
2022-11-01T11:15:04.953Z,20.73
2022-11-01T11:17:42.562Z,20.86
2022-11-01T11:20:12.586Z,20.98
2022-11-01T11:22:43.305Z,21.02
2022-11-01T11:25:23.191Z,21.13
2022-11-01T11:27:53.408Z,21.12
2022-11-01T11:30:34.527Z,21.16
2022-11-01T11:33:03.377Z,21.08
2022-11-01T11:35:34.091Z,21.21
2022-11-01T11:38:06.908Z,21.21
2022-11-01T11:40:41.360Z,21.24
2022-11-01T11:43:33.938Z,21.24
2022-11-01T11:46:21.110Z,21.22
2022-11-01T11:48:56.873Z,21.30
2022-11-01T11:51:29.709Z,21.37
2022-11-01T11:54:29.098Z,21.35
2022-11-01T11:57:27.190Z,21.26
2022-11-01T12:00:00.576Z,21.35
2022-11-01T12:02:41.874Z,21.40
2022-11-01T12:05:23.296Z,21.49
2022-11-01T12:07:57.176Z,21.52
2022-11-01T12:10:37.188Z,21.56
2022-11-01T12:13:28.022Z,21.62
2022-11-01T12:16:08.247Z,21.64
2022-11-01T12:18:52.975Z,21.70
2022-11-01T12:21:35.159Z,21.74
2022-11-01T12:24:05.293Z,21.79
2022-11-01T12:26:37.742Z,21.82
2022-11-01T12:29:37.645Z,21.87
2022-11-01T12:32:32.297Z,21.78
2022-11-01T12:35:21.717Z,21.89
2022-11-01T12:38:11.449Z,21.97
2022-11-01T12:40:43.641Z,21.95
2022-11-01T12:43:29.335Z,22.03
2022-11-01T12:46:19.396Z,22.03
2022-11-01T12:49:18.287Z,22.01
2022-11-01T12:51:54.066Z,22.01
2022-11-01T12:54:31.891Z,22.07
2022-11-01T12:57:00.005Z,22.08
2022-11-01T12:59:37.790Z,22.21
2022-11-01T13:02:08.698Z,22.22
2022-11-01T13:04:57.493Z,22.19
2022-11-01T13:07:44.559Z,22.29
2022-11-01T13:10:12.702Z,22.31
2022-11-01T13:13:13.623Z,22.38
2022-11-01T13:16:04.696Z,22.39
2022-11-01T13:18:50.076Z,22.36
2022-11-01T13:21:30.700Z,22.45
2022-11-01T13:24:31.362Z,22.42
2022-11-01T13:27:07.865Z,22.45
2022-11-01T13:29:54.820Z,22.40
2022-11-01T13:32:50.302Z,22.50
2022-11-01T13:36:00.948Z,22.46
2022-11-01T13:38:38.092Z,22.44
2022-11-01T13:41:39.607Z,22.47
2022-11-01T13:44:32.212Z,22.37
2022-11-01T13:47:24.190Z,22.45
2022-11-01T13:50:52.140Z,22.31
2022-11-01T13:53:25.730Z,22.25
2022-11-01T13:56:11.104Z,22.23
2022-11-01T13:58:41.042Z,22.15
2022-11-01T14:01:36.949Z,22.18
2022-11-01T14:04:14.436Z,22.12
2022-11-01T14:07:05.171Z,22.07
2022-11-01T14:09:42.160Z,22.01
2022-11-01T14:12:31.981Z,22.04
2022-11-01T14:15:13.772Z,22.01
2022-11-01T14:17:58.078Z,22.01
2022-11-01T14:20:28.071Z,21.95
2022-11-01T14:22:58.302Z,21.95
2022-11-01T14:25:32.588Z,21.94
2022-11-01T14:28:18.687Z,21.92
2022-11-01T14:30:51.689Z,21.79
2022-11-01T14:33:22.743Z,21.79
2022-11-01T14:35:59.129Z,21.79
2022-11-01T14:38:49.269Z,21.76
2022-11-01T14:41:20.455Z,21.69
2022-11-01T14:46:45.591Z,21.63
2022-11-01T14:49:29.136Z,21.56
2022-11-01T14:52:10.908Z,21.57
2022-11-01T14:55:00.514Z,21.60
2022-11-01T14:57:30.636Z,21.48
2022-11-01T15:00:12.624Z,21.59
2022-11-01T15:02:41.184Z,21.53
2022-11-01T15:05:18.622Z,21.62
2022-11-01T15:07:56.106Z,21.58
2022-11-01T15:10:24.417Z,21.53
2022-11-01T15:13:01.627Z,21.49
2022-11-01T15:15:37.668Z,21.47
2022-11-01T15:18:20.913Z,21.47
2022-11-01T15:20:55.083Z,21.42
2022-11-01T15:23:38.930Z,21.40
2022-11-01T15:26:14.925Z,21.34
2022-11-01T15:28:53.883Z,21.31
2022-11-01T15:31:24.119Z,21.25
2022-11-01T15:34:24.485Z,21.17
2022-11-01T15:36:54.853Z,21.12
2022-11-01T15:39:26.494Z,21.00
2022-11-01T15:41:55.910Z,21.00
2022-11-01T15:44:32.518Z,21.04
2022-11-01T15:47:04.602Z,20.99
2022-11-01T15:49:43.529Z,20.96
2022-11-01T15:52:20.658Z,20.86
2022-11-01T15:55:09.445Z,20.84
2022-11-01T15:57:48.162Z,20.81
2022-11-01T16:00:22.896Z,20.75
2022-11-01T16:03:13.448Z,20.76
2022-11-01T16:05:56.910Z,20.71
2022-11-01T16:08:42.163Z,20.62
2022-11-01T16:11:39.862Z,20.64
2022-11-01T16:14:37.674Z,20.56
2022-11-01T16:17:25.537Z,20.52
2022-11-01T16:20:24.774Z,20.46
2022-11-01T16:22:53.436Z,20.40
2022-11-01T16:25:28.396Z,20.40
2022-11-01T16:28:10.489Z,20.37
2022-11-01T16:30:46.582Z,20.30
2022-11-01T16:33:20.582Z,20.29
2022-11-01T16:35:58.713Z,20.22
2022-11-01T16:38:38.472Z,20.21
2022-11-01T16:41:15.461Z,20.17
2022-11-01T16:43:44.255Z,20.09
2022-11-01T16:46:14.846Z,20.02
2022-11-01T16:48:58.373Z,20.01
2022-11-01T16:51:31.102Z,19.87
2022-11-01T16:54:01.847Z,19.91
2022-11-01T16:56:38.493Z,19.81
2022-11-01T16:59:43.648Z,19.82
2022-11-01T17:02:24.217Z,19.72
2022-11-01T17:04:58.788Z,19.68
2022-11-01T17:07:27.729Z,19.64
2022-11-01T17:09:55.810Z,19.55
2022-11-01T17:12:24.518Z,19.56
2022-11-01T17:14:53.170Z,19.59
2022-11-01T17:17:25.026Z,19.55
2022-11-01T17:20:00.857Z,19.53
2022-11-01T17:22:36.698Z,19.49
2022-11-01T17:25:07.461Z,19.50
2022-11-01T17:27:36.703Z,19.40
2022-11-01T17:30:05.597Z,19.44
2022-11-01T17:32:34.505Z,19.45
2022-11-01T17:35:03.274Z,19.41
2022-11-01T17:37:35.555Z,19.34
2022-11-01T17:40:18.992Z,19.34
2022-11-01T17:42:48.127Z,19.33
2022-11-01T17:45:17.928Z,19.29
2022-11-01T17:47:46.772Z,19.23
2022-11-01T17:50:17.534Z,19.26
2022-11-01T17:52:47.841Z,19.11
2022-11-01T17:55:16.606Z,19.08
2022-11-01T17:57:44.851Z,19.13
2022-11-01T18:00:15.495Z,19.11
2022-11-01T18:02:44.570Z,19.08
2022-11-01T18:05:14.083Z,19.05
2022-11-01T18:07:47.725Z,19.03
2022-11-01T18:10:39.050Z,18.98
2022-11-01T18:13:40.033Z,18.78
2022-11-01T18:16:32.945Z,18.70
2022-11-01T18:19:28.948Z,18.70
2022-11-01T18:22:10.658Z,18.65
2022-11-01T18:25:26.536Z,18.56
2022-11-01T18:27:58.929Z,18.50
2022-11-01T18:30:28.814Z,18.52
2022-11-01T18:33:06.279Z,18.50
2022-11-01T18:36:08.580Z,18.44
2022-11-01T18:39:13.316Z,18.42
2022-11-01T18:41:48.837Z,18.38
2022-11-01T18:44:19.229Z,18.37
2022-11-01T18:47:21.956Z,18.38
2022-11-01T18:49:51.256Z,18.26
2022-11-01T18:52:20.253Z,18.30
2022-11-01T18:54:56.681Z,18.29
2022-11-01T18:57:31.250Z,18.26
2022-11-01T19:00:01.385Z,18.20
2022-11-01T19:02:31.838Z,18.19
2022-11-01T19:05:23.022Z,18.16
2022-11-01T19:08:20.341Z,18.11
2022-11-01T19:10:51.560Z,18.02
2022-11-01T19:13:32.576Z,17.93
2022-11-01T19:16:06.666Z,17.92
2022-11-01T19:18:38.171Z,17.91
2022-11-01T19:21:22.641Z,17.91
2022-11-01T19:23:58.785Z,17.88
2022-11-01T19:26:41.712Z,17.90
2022-11-01T19:29:26.766Z,17.88
2022-11-01T19:31:59.335Z,17.85
2022-11-01T19:34:43.474Z,17.87
2022-11-01T19:37:37.435Z,17.85
2022-11-01T19:40:27.823Z,17.80
2022-11-01T19:43:00.679Z,17.71
2022-11-01T19:45:34.097Z,17.64
2022-11-01T19:48:04.803Z,17.57
2022-11-01T19:50:46.895Z,17.57
2022-11-01T19:53:40.547Z,17.30
2022-11-01T19:56:24.532Z,17.40
2022-11-01T19:59:04.816Z,17.37
2022-11-01T20:01:43.234Z,17.35
2022-11-01T20:04:29.718Z,17.29
2022-11-01T20:07:20.901Z,17.35
2022-11-01T20:09:58.281Z,17.24
2022-11-01T20:12:28.702Z,17.24
2022-11-01T20:14:57.730Z,17.14
2022-11-01T20:17:28.869Z,17.11
2022-11-01T20:19:59.530Z,17.08
2022-11-01T20:22:30.478Z,16.97
2022-11-01T20:25:00.955Z,17.01
2022-11-01T20:27:31.765Z,16.97
2022-11-01T20:30:07.009Z,17.00
2022-11-01T20:32:37.970Z,16.67
2022-11-01T20:35:07.141Z,16.80
2022-11-01T20:37:38.555Z,16.92
2022-11-01T20:40:12.500Z,16.88
2022-11-01T20:42:43.946Z,16.90
2022-11-01T20:47:56.316Z,16.80
2022-11-01T20:50:25.356Z,16.77
2022-11-01T20:52:54.879Z,16.65
2022-11-01T20:55:24.653Z,16.63
2022-11-01T20:57:54.087Z,16.63
2022-11-01T21:00:23.986Z,16.60
2022-11-01T21:05:58.129Z,16.49
2022-11-01T21:08:35.148Z,16.39
2022-11-01T21:11:58.174Z,16.25
2022-11-01T21:14:45.737Z,16.28
2022-11-01T21:23:47.792Z,16.00
2022-11-01T21:27:00.825Z,16.08
2022-11-01T21:29:40.239Z,16.00
2022-11-01T21:32:52.760Z,16.02
2022-11-01T21:36:17.036Z,15.89
2022-11-01T21:39:12.729Z,15.88
2022-11-01T21:42:07.758Z,15.82
2022-11-01T21:45:51.435Z,15.89
2022-11-01T21:48:54.897Z,15.89
2022-11-01T21:51:40.829Z,15.74
2022-11-01T21:54:24.354Z,15.73
2022-11-01T21:57:46.263Z,15.81
2022-11-01T22:00:34.937Z,15.62
2022-11-01T22:03:03.694Z,15.68
2022-11-01T22:05:35.609Z,15.64
2022-11-01T22:08:04.599Z,15.69
2022-11-01T22:10:33.443Z,15.71
2022-11-01T22:13:06.500Z,15.64
2022-11-01T22:15:38.365Z,15.61
2022-11-01T22:18:06.547Z,15.58
2022-11-01T22:20:34.841Z,15.69
2022-11-01T22:23:04.200Z,15.64
2022-11-01T22:25:35.087Z,15.72
2022-11-01T22:28:04.328Z,15.67
2022-11-01T22:30:32.637Z,15.64
2022-11-01T22:33:06.861Z,15.61
2022-11-01T22:35:34.935Z,15.68
2022-11-01T22:38:41.816Z,15.63
2022-11-01T22:41:32.810Z,15.57
2022-11-01T22:44:30.822Z,15.57
2022-11-01T22:47:03.099Z,15.57
2022-11-01T22:49:35.493Z,15.57
2022-11-01T22:52:34.200Z,15.58
2022-11-01T22:55:10.603Z,15.55
2022-11-01T22:57:54.245Z,15.53
2022-11-01T23:00:29.363Z,15.52
2022-11-01T23:03:30.729Z,15.41
2022-11-01T23:06:02.177Z,15.39
2022-11-01T23:08:32.777Z,15.21
2022-11-01T23:11:03.626Z,15.26
2022-11-01T23:13:52.907Z,15.19
2022-11-01T23:16:44.166Z,15.25
2022-11-01T23:19:14.265Z,15.25
2022-11-01T23:21:42.384Z,15.25
2022-11-01T23:24:10.657Z,15.20
2022-11-01T23:26:38.762Z,15.24
2022-11-01T23:29:07.253Z,15.23
2022-11-01T23:31:35.495Z,15.22
2022-11-01T23:34:13.320Z,15.22
2022-11-01T23:36:42.072Z,15.13
2022-11-01T23:39:15.294Z,15.23
2022-11-01T23:41:50.529Z,15.22
2022-11-01T23:44:27.814Z,15.27
2022-11-01T23:47:21.163Z,15.28
2022-11-01T23:50:04.439Z,15.25
2022-11-01T23:53:15.680Z,15.21
2022-11-01T23:55:52.300Z,15.21
2022-11-01T23:58:31.374Z,15.16
